Here is the Quick Look data you requested

The Data originates at the National Weather Service, and is made available here by the UAlbany Department of Atmospheric and Environmental Sciences

Surface Observations

KAFN 150652Z AUTO 23007KT 9SM OVC004 06/06 A3014 RMK AO2 SLP218 T00560056=
KASH 150656Z AUTO 00000KT 10SM OVC043 04/04 A3017 RMK AO2 SLP226 T00440044 $=
KBML 150652Z AUTO 34003KT 7SM BKN025 OVC041 01/01 A3005 RMK AO2 SLP189
 T00110006=
KCON 150651Z AUTO 14004KT 10SM BKN034 04/03 A3015 RMK AO2 SLP212 T00440028=
KCWN 150658Z AUTO 31004KT 10SM BKN200 00/M12 A3010 RMK AO2 SLP105 T10031119
 400701008 $=
KDAW 150651Z AUTO 00000KT 10SM FEW034 03/02 A3014 RMK AO2 SLP205 T00330022=
KEEN 150656Z AUTO 00000KT 7SM BKN009 03/03 A3017 RMK AO2 CIG 007V012 SLP239
 T00330028 $=
KHIE 150652Z AUTO 00000KT 10SM OVC040 02/00 A3007 RMK AO2 SLP196 T00170000=
KLCI 150656Z AUTO 25010KT 10SM SCT032 02/01 A3013 RMK AO2 SLP224 T00170006
 FZRANO $=
KLEB 150653Z AUTO 00000KT 8SM BKN027 02/M01 A3013 RMK AO2 SLP210 T00171006=
KMHT 150653Z 04003KT 10SM FEW019 OVC041 04/03 A3015 RMK AO2 SLP225 T00440028=
KMWN 150656Z 27055KT 0SM FZFG BLSN VV000 M05/M05 RMK VRY LGT ICG=
KPSM 150656Z 25004KT 10SM FEW020 SCT036 BKN100 BKN200 06/05 A3014 RMK AO2A
 SLP209 T00600046=